Time;durP1;ratioP1;P1;durP2;ratioP2;P2;SDS_P1;SDS_P2;PMS_P1;PMS_P2;Temp;Humidity;BMP_temperature;BMP_pressure;BME280_temperature;BME280_humidity;BME280_pressure;Samples;Min_cycle;Max_cycle;Signal;HPM_P1;HPM_P2
2023/07/18 00:00:19;;;;;;;6.90;3.90;;;;;;;17.56;100.00;100282.66;105458;1259;60419;-64
2023/07/18 00:02:47;;;;;;;4.20;3.10;;;;;;;17.54;100.00;100284.95;105457;1258;60100;-70
2023/07/18 00:05:15;;;;;;;5.80;3.20;;;;;;;17.50;100.00;100287.01;105095;1257;73506;-63
2023/07/18 00:07:44;;;;;;;5.00;3.20;;;;;;;17.47;100.00;100285.21;105395;1258;66774;-65
2023/07/18 00:10:12;;;;;;;5.20;3.80;;;;;;;17.45;100.00;100285.80;105398;1254;71550;-65
2023/07/18 00:12:40;;;;;;;5.60;3.80;;;;;;;17.44;100.00;100288.50;105503;1254;61601;-64
2023/07/18 00:15:09;;;;;;;7.10;3.90;;;;;;;17.42;100.00;100285.56;105209;1254;59710;-70
2023/07/18 00:17:38;;;;;;;6.60;3.40;;;;;;;17.42;100.00;100279.39;105352;1257;73049;-65
2023/07/18 00:20:12;;;;;;;4.50;3.40;;;;;;;17.41;100.00;100272.36;105393;1254;66095;-68
2023/07/18 00:22:43;;;;;;;5.00;3.70;;;;;;;17.39;100.00;100262.52;105184;1254;71884;-64
2023/07/18 00:25:13;;;;;;;8.60;4.30;;;;;;;17.37;100.00;100261.25;105432;1254;59714;-65
2023/07/18 00:27:41;;;;;;;5.10;3.90;;;;;;;17.34;100.00;100260.68;105347;1254;60003;-65
2023/07/18 00:30:12;;;;;;;6.60;4.10;;;;;;;17.28;100.00;100255.07;105377;1259;73076;-64
2023/07/18 00:32:42;;;;;;;6.40;4.60;;;;;;;17.22;100.00;100257.23;105277;1258;65679;-71
2023/07/18 00:35:11;;;;;;;6.30;4.20;;;;;;;17.17;100.00;100259.72;105319;1257;73039;-64
2023/07/18 00:37:39;;;;;;;6.60;4.00;;;;;;;17.13;100.00;100262.91;105299;1254;59839;-68
2023/07/18 00:40:11;;;;;;;4.70;3.90;;;;;;;17.08;100.00;100261.13;105383;1256;59551;-66
2023/07/18 00:42:44;;;;;;;6.90;3.50;;;;;;;17.03;100.00;100259.26;105462;1252;71853;-65
2023/07/18 00:45:12;;;;;;;5.40;4.00;;;;;;;17.00;100.00;100259.98;105073;1253;66967;-65
2023/07/18 00:47:44;;;;;;;4.40;3.40;;;;;;;16.97;100.00;100263.71;105399;1254;72794;-71
2023/07/18 00:50:16;;;;;;;5.30;3.80;;;;;;;16.96;100.00;100258.55;105431;1254;59762;-67
2023/07/18 00:52:48;;;;;;;5.40;3.60;;;;;;;16.99;100.00;100257.15;105414;1259;60007;-66
2023/07/18 00:55:16;;;;;;;5.70;4.30;;;;;;;17.01;100.00;100256.36;105507;1257;72861;-63
2023/07/18 00:57:45;;;;;;;5.90;4.00;;;;;;;17.02;100.00;100254.08;105021;1254;67726;-66
2023/07/18 01:00:14;;;;;;;4.90;3.70;;;;;;;17.02;100.00;100254.23;105187;1254;72628;-63
2023/07/18 01:02:45;;;;;;;5.90;4.30;;;;;;;17.00;100.00;100251.92;105810;1253;61710;-71
2023/07/18 01:05:17;;;;;;;5.50;3.70;;;;;;;16.96;100.00;100246.23;105352;1253;59618;-65
2023/07/18 01:07:46;;;;;;;5.20;4.10;;;;;;;16.92;100.00;100244.83;105149;1253;72351;-66
2023/07/18 01:10:23;;;;;;;5.50;4.00;;;;;;;16.88;100.00;100242.77;105399;1254;67004;-64
2023/07/18 01:12:58;;;;;;;8.20;4.70;;;;;;;16.83;100.00;100241.84;105434;1254;73647;-65
2023/07/18 01:15:33;;;;;;;6.70;3.80;;;;;;;16.78;100.00;100237.56;105402;1254;61709;-64
2023/07/18 01:18:07;;;;;;;6.80;4.90;;;;;;;16.75;100.00;100240.02;105092;1253;60843;-65
2023/07/18 01:20:36;;;;;;;5.80;4.20;;;;;;;16.71;100.00;100240.92;105102;1258;74302;-65
2023/07/18 01:23:04;;;;;;;5.80;4.20;;;;;;;16.67;100.00;100237.82;105524;1259;65864;-64
2023/07/18 01:25:36;;;;;;;5.00;4.10;;;;;;;16.63;100.00;100237.30;105602;1256;71548;-64
2023/07/18 01:28:06;;;;;;;7.10;3.90;;;;;;;16.61;100.00;100237.51;105016;1254;60437;-72
2023/07/18 01:30:34;;;;;;;7.20;4.20;;;;;;;16.58;100.00;100233.59;105173;1258;60392;-64
2023/07/18 01:33:03;;;;;;;5.30;3.80;;;;;;;16.56;100.00;100239.27;105450;1254;72664;-64
2023/07/18 01:35:31;;;;;;;4.60;4.00;;;;;;;16.52;100.00;100239.39;105412;1258;66953;-66
2023/07/18 01:37:59;;;;;;;5.60;4.40;;;;;;;16.50;100.00;100236.02;105336;1260;72720;-70
2023/07/18 01:40:27;;;;;;;6.00;4.40;;;;;;;16.47;100.00;100239.98;105391;1256;60421;-63
2023/07/18 01:42:57;;;;;;;7.90;4.00;;;;;;;16.45;100.00;100242.52;105424;1254;60450;-65
2023/07/18 01:45:27;;;;;;;7.00;4.60;;;;;;;16.43;100.00;100240.51;105539;1259;73740;-66
2023/07/18 01:47:56;;;;;;;6.30;4.20;;;;;;;16.43;100.00;100238.92;105416;1257;67550;-73
2023/07/18 01:50:25;;;;;;;7.80;3.80;;;;;;;16.44;100.00;100240.22;105284;1259;71870;-66
2023/07/18 01:52:55;;;;;;;6.80;4.00;;;;;;;16.47;100.00;100241.77;105261;1257;61732;-65
2023/07/18 01:55:23;;;;;;;6.90;5.00;;;;;;;16.52;100.00;100241.42;105419;1253;60510;-63
2023/07/18 01:57:52;;;;;;;6.50;4.50;;;;;;;16.57;100.00;100245.55;105535;1254;74395;-71
2023/07/18 02:00:20;;;;;;;6.80;4.30;;;;;;;16.61;100.00;100249.39;105323;1260;67485;-64
2023/07/18 02:02:51;;;;;;;5.70;4.20;;;;;;;16.66;100.00;100255.90;105916;1260;72633;-63
2023/07/18 02:05:22;;;;;;;6.30;4.20;;;;;;;16.72;100.00;100257.44;105152;1257;61717;-66
2023/07/18 02:07:50;;;;;;;6.50;4.20;;;;;;;16.85;100.00;100253.59;105766;1254;60476;-71
2023/07/18 02:10:20;;;;;;;4.90;4.10;;;;;;;17.08;100.00;100256.06;105042;1259;74508;-63
2023/07/18 02:12:48;;;;;;;6.80;4.20;;;;;;;17.37;100.00;100258.30;105254;1254;67053;-63
2023/07/18 02:15:16;;;;;;;6.50;4.10;;;;;;;17.70;100.00;100254.90;105490;1257;71452;-63
2023/07/18 02:17:44;;;;;;;5.40;3.80;;;;;;;18.08;100.00;100251.88;105176;1252;60408;-66
2023/07/18 02:20:13;;;;;;;5.50;4.30;;;;;;;18.47;100.00;100246.21;105055;1257;60364;-63
2023/07/18 02:22:43;;;;;;;7.50;4.30;;;;;;;18.89;100.00;100239.60;105572;1257;73891;-64
2023/07/18 02:25:11;;;;;;;6.50;4.40;;;;;;;19.32;100.00;100235.50;105407;1258;66494;-63
2023/07/18 02:27:40;;;;;;;10.90;7.70;;;;;;;19.77;100.00;100227.66;105493;1254;72728;-66
2023/07/18 02:30:10;;;;;;;54.30;31.50;;;;;;;20.26;100.00;100222.98;105292;1255;60762;-65
2023/07/18 02:32:39;;;;;;;31.90;28.50;;;;;;;20.73;100.00;100210.19;105430;1256;60342;-64
2023/07/18 02:35:08;;;;;;;26.20;23.90;;;;;;;21.14;100.00;100201.67;105335;1254;72610;-64
2023/07/18 02:37:36;;;;;;;13.30;11.80;;;;;;;21.39;100.00;100192.27;105418;1256;66879;-64
2023/07/18 02:40:09;;;;;;;20.80;18.70;;;;;;;21.64;100.00;100181.13;105372;1254;72545;-71
2023/07/18 02:42:38;;;;;;;23.80;22.00;;;;;;;22.09;100.00;100166.44;105315;1257;60421;-63
2023/07/18 02:45:08;;;;;;;18.70;17.10;;;;;;;22.58;100.00;100159.06;105720;1256;60328;-64
2023/07/18 02:47:39;;;;;;;9.70;8.90;;;;;;;22.87;100.00;100155.56;105272;1254;73977;-64
2023/07/18 02:50:07;;;;;;;7.50;6.50;;;;;;;22.86;100.00;100147.05;105438;1258;67229;-65
2023/07/18 02:52:36;;;;;;;6.50;5.00;;;;;;;22.70;100.00;100143.19;105549;1257;73143;-63
2023/07/18 02:55:04;;;;;;;6.20;4.50;;;;;;;22.66;100.00;100135.41;105426;1259;60702;-64
2023/07/18 02:57:32;;;;;;;5.60;4.90;;;;;;;23.02;100.00;100136.79;105461;1257;60589;-63
2023/07/18 03:00:01;;;;;;;7.60;4.20;;;;;;;23.54;100.00;100130.23;105616;1254;72641;-70
2023/07/18 03:02:28;;;;;;;4.70;3.90;;;;;;;24.13;100.00;100124.80;105514;1254;65651;-63
2023/07/18 03:04:56;;;;;;;6.70;4.70;;;;;;;24.68;100.00;100120.38;105315;1257;72651;-63
2023/07/18 03:07:24;;;;;;;4.80;4.10;;;;;;;25.31;100.00;100119.40;105320;1254;60559;-64
2023/07/18 03:09:52;;;;;;;5.20;4.30;;;;;;;26.03;100.00;100117.22;105804;1252;60450;-69
2023/07/18 03:12:21;;;;;;;7.30;4.50;;;;;;;26.71;100.00;100114.27;105061;1254;73950;-64
2023/07/18 03:14:49;;;;;;;7.30;4.80;;;;;;;27.30;100.00;100109.40;105491;1260;67316;-65
2023/07/18 03:17:17;;;;;;;5.40;4.40;;;;;;;27.89;100.00;100102.84;105341;1255;72745;-63
2023/07/18 03:19:45;;;;;;;5.60;4.50;;;;;;;28.53;100.00;100105.33;105216;1260;60536;-64
2023/07/18 03:22:14;;;;;;;5.00;4.10;;;;;;;29.19;100.00;100106.04;105027;1255;60540;-68
2023/07/18 03:24:42;;;;;;;6.50;4.80;;;;;;;29.83;100.00;100106.61;105493;1256;73064;-63
2023/07/18 03:27:10;;;;;;;5.20;3.70;;;;;;;30.42;100.00;100104.41;105463;1254;67044;-64
2023/07/18 03:29:38;;;;;;;5.10;4.00;;;;;;;30.94;100.00;100098.58;105350;1264;71415;-63
2023/07/18 03:32:06;;;;;;;4.90;3.60;;;;;;;31.47;100.00;100095.28;105111;1254;60418;-67
2023/07/18 03:34:34;;;;;;;5.80;3.90;;;;;;;31.87;98.09;100090.41;105227;1254;60508;-64
2023/07/18 03:37:02;;;;;;;4.70;3.80;;;;;;;32.27;91.76;100083.97;105043;1254;72619;-64
2023/07/18 03:39:30;;;;;;;5.60;4.00;;;;;;;32.66;84.85;100083.33;105357;1260;65729;-64
2023/07/18 03:41:57;;;;;;;4.70;3.40;;;;;;;33.12;79.35;100085.96;105586;1254;71513;-65
2023/07/18 03:44:26;;;;;;;4.60;3.90;;;;;;;33.59;73.65;100087.96;105530;1254;60340;-68
2023/07/18 03:46:53;;;;;;;4.20;3.60;;;;;;;33.98;67.45;100089.66;105022;1259;60424;-61
2023/07/18 03:49:37;;;;;;;5.40;3.60;;;;;;;34.32;62.85;100091.20;105372;1256;64987;-62
2023/07/18 03:52:05;;;;;;;5.00;3.80;;;;;;;34.64;59.49;100090.27;105465;1260;66735;-64
2023/07/18 03:54:33;;;;;;;4.60;3.80;;;;;;;34.96;55.86;100088.74;105487;1256;62461;-63
2023/07/18 03:57:02;;;;;;;5.50;3.60;;;;;;;35.26;52.41;100086.64;105276;1259;60517;-61
2023/07/18 03:59:30;;;;;;;4.10;3.30;;;;;;;35.48;49.69;100085.81;105508;1258;60422;-61
2023/07/18 04:01:58;;;;;;;4.70;3.20;;;;;;;35.60;47.74;100084.05;105582;1254;63844;-64
2023/07/18 04:04:29;;;;;;;5.40;3.60;;;;;;;35.67;46.49;100088.93;105515;1254;60501;-67
2023/07/18 04:06:58;;;;;;;4.70;3.90;;;;;;;35.85;45.93;100090.59;105345;1259;63780;-63
2023/07/18 04:09:25;;;;;;;3.70;3.20;;;;;;;35.98;43.03;100093.96;105416;1254;60489;-62
2023/07/18 04:11:53;;;;;;;3.90;3.40;;;;;;;35.96;42.06;100095.85;105433;1253;60284;-63
2023/07/18 04:14:21;;;;;;;3.60;3.20;;;;;;;35.98;41.82;100095.13;105541;1257;64960;-67
2023/07/18 04:16:49;;;;;;;5.80;3.90;;;;;;;36.15;41.58;100091.64;105326;1257;60395;-62
2023/07/18 04:19:16;;;;;;;3.70;3.30;;;;;;;36.42;41.27;100093.63;105440;1260;62473;-63
2023/07/18 04:21:44;;;;;;;3.90;3.40;;;;;;;36.75;39.40;100090.08;105351;1254;60520;-63
2023/07/18 04:24:12;;;;;;;6.80;4.30;;;;;;;36.96;37.81;100090.95;105544;1256;60477;-68
2023/07/18 04:26:40;;;;;;;3.80;3.30;;;;;;;37.07;37.16;100090.97;105445;1256;64909;-63
2023/07/18 04:29:08;;;;;;;6.50;3.30;;;;;;;37.17;36.72;100089.41;105384;1258;60472;-63
2023/07/18 04:31:37;;;;;;;4.20;3.40;;;;;;;37.26;36.41;100087.90;105518;1257;62538;-64
2023/07/18 04:34:05;;;;;;;4.20;3.40;;;;;;;37.39;36.21;100096.33;105472;1257;60423;-69
2023/07/18 04:36:33;;;;;;;3.60;3.00;;;;;;;37.46;36.00;100093.80;105311;1255;60363;-64
2023/07/18 04:39:01;;;;;;;3.60;3.00;;;;;;;37.62;36.28;100089.17;105306;1259;64602;-64
2023/07/18 04:41:29;;;;;;;5.30;3.60;;;;;;;37.91;35.15;100087.73;105256;1260;60424;-63
2023/07/18 04:44:11;;;;;;;4.70;4.00;;;;;;;38.18;33.82;100086.16;105357;1257;64352;-64
2023/07/18 04:46:39;;;;;;;4.30;3.50;;;;;;;38.32;32.98;100089.02;105393;1259;60585;-63
2023/07/18 04:49:07;;;;;;;4.70;3.80;;;;;;;38.36;32.41;100085.73;105302;1259;60437;-64
2023/07/18 04:51:35;;;;;;;4.90;3.60;;;;;;;38.35;32.54;100086.95;105362;1259;64967;-68
2023/07/18 04:54:02;;;;;;;4.20;3.80;;;;;;;38.50;32.19;100089.52;104935;1260;60545;-69
2023/07/18 04:56:31;;;;;;;3.50;3.20;;;;;;;38.69;31.62;100093.25;105361;1258;62609;-65
2023/07/18 04:58:59;;;;;;;4.70;3.80;;;;;;;38.85;31.18;100098.30;105335;1253;60366;-64
2023/07/18 05:01:28;;;;;;;5.50;4.00;;;;;;;39.01;30.85;100097.38;105674;1260;60501;-64
2023/07/18 05:03:57;;;;;;;4.70;3.50;;;;;;;39.20;30.86;100096.80;105715;1254;63903;-69
2023/07/18 05:06:25;;;;;;;5.00;3.60;;;;;;;39.38;30.27;100095.52;105422;1259;60515;-64
2023/07/18 05:08:53;;;;;;;5.90;3.50;;;;;;;39.50;29.86;100092.46;105449;1251;62586;-64
2023/07/18 05:11:21;;;;;;;4.30;3.70;;;;;;;39.59;30.27;100092.27;105486;1255;60484;-64
2023/07/18 05:13:49;;;;;;;5.20;4.30;;;;;;;39.79;30.00;100088.91;105769;1257;60084;-68
2023/07/18 05:16:17;;;;;;;6.10;4.50;;;;;;;39.97;30.02;100086.48;105524;1256;65528;-64
2023/07/18 05:18:45;;;;;;;5.00;4.00;;;;;;;40.17;29.50;100085.52;105570;1257;60458;-64
2023/07/18 05:21:14;;;;;;;5.20;4.20;;;;;;;40.36;29.27;100081.02;105411;1257;63823;-64
2023/07/18 05:23:41;;;;;;;4.90;4.40;;;;;;;40.52;29.42;100075.71;105345;1260;60472;-64
2023/07/18 05:26:10;;;;;;;5.10;4.10;;;;;;;40.71;29.46;100070.41;104921;1265;60296;-65
2023/07/18 05:28:38;;;;;;;9.50;4.70;;;;;;;40.91;29.43;100072.27;105432;1252;65000;-64
2023/07/18 05:38:53;;;;;;;7.20;4.40;;;;;;;41.84;27.73;100059.51;102129;1290;600859;-63
2023/07/18 05:41:21;;;;;;;6.10;4.50;;;;;;;42.04;27.05;100057.20;104595;1269;58934;-64
2023/07/18 05:43:49;;;;;;;4.80;4.30;;;;;;;42.26;26.60;100057.92;104891;1264;59440;-67
2023/07/18 05:46:17;;;;;;;4.40;4.00;;;;;;;42.47;26.17;100059.54;104580;1266;63355;-64
2023/07/18 05:48:45;;;;;;;4.50;4.00;;;;;;;42.64;25.90;100061.29;104595;1267;59349;-63
2023/07/18 05:51:13;;;;;;;5.80;4.30;;;;;;;42.86;25.59;100059.05;104548;1271;63984;-63
2023/07/18 05:53:41;;;;;;;5.40;4.00;;;;;;;43.01;25.51;100056.61;104370;1264;200131;-66
2023/07/18 05:56:09;;;;;;;4.90;4.30;;;;;;;43.05;25.52;100057.04;104503;1264;59544;-63
2023/07/18 05:58:36;;;;;;;5.20;4.00;;;;;;;43.12;25.41;100056.27;104567;1264;63381;-64
2023/07/18 06:01:13;;;;;;;4.40;4.00;;;;;;;43.24;25.12;100060.44;104620;1264;59323;-67
2023/07/18 06:03:42;;;;;;;4.40;4.00;;;;;;;43.39;25.00;100055.61;105294;1266;63768;-66
2023/07/18 06:06:10;;;;;;;4.20;3.30;;;;;;;43.41;25.09;100054.81;104646;1267;59685;-63
2023/07/18 06:08:38;;;;;;;7.20;3.70;;;;;;;43.43;25.16;100056.45;105699;1256;59707;-63
2023/07/18 06:11:06;;;;;;;4.00;3.50;;;;;;;43.52;25.22;100057.27;105693;1251;64198;-64
2023/07/18 06:13:34;;;;;;;3.80;2.90;;;;;;;43.62;24.82;100052.99;105721;1256;59522;-63
2023/07/18 06:16:01;;;;;;;4.40;3.00;;;;;;;43.63;24.05;100050.95;105809;1253;64226;-65
2023/07/18 06:18:30;;;;;;;4.80;3.60;;;;;;;43.47;24.16;100050.52;106089;1253;59596;-63
2023/07/18 06:20:58;;;;;;;4.00;3.60;;;;;;;43.37;24.82;100049.14;105938;1253;59631;-63
2023/07/18 06:37:22;;;;;;;6.10;3.80;;;;;;;43.84;24.13;100038.53;102488;1285;604914;-65
2023/07/18 06:39:50;;;;;;;4.40;4.00;;;;;;;44.24;23.36;100030.58;104511;1266;124183;-63
2023/07/18 06:42:18;;;;;;;4.80;3.80;;;;;;;43.96;23.68;100032.35;104524;1268;59208;-63
2023/07/18 06:44:46;;;;;;;5.10;2.90;;;;;;;43.79;23.96;100032.21;108492;1259;62091;-66
2023/07/18 06:47:14;;;;;;;6.20;3.60;;;;;;;43.59;23.46;100032.16;107118;1262;59249;-66
2023/07/18 06:49:44;;;;;;;6.20;3.60;;;;;;;43.54;23.68;100031.62;105862;1259;62658;-63
2023/07/18 06:52:12;;;;;;;4.60;3.40;;;;;;;43.62;23.32;100026.00;105371;1263;59219;-63
2023/07/18 06:54:39;;;;;;;3.50;2.80;;;;;;;43.72;23.12;100026.58;105044;1259;59566;-63
2023/07/18 06:57:09;;;;;;;4.50;3.30;;;;;;;43.82;22.72;100024.86;105462;1259;62254;-66
2023/07/18 06:59:37;;;;;;;4.30;3.50;;;;;;;43.89;22.71;100024.77;104873;1260;59297;-63
2023/07/18 07:02:05;;;;;;;3.80;3.20;;;;;;;43.86;22.92;100021.52;104848;1265;63961;-63
2023/07/18 07:04:34;;;;;;;3.40;3.10;;;;;;;43.84;22.59;100021.84;104909;1260;59691;-62
2023/07/18 07:07:03;;;;;;;;;;;;;;;43.65;22.18;100016.33;106291;1259;59517;-66
2023/07/18 07:09:31;;;;;;;5.60;3.70;;;;;;;43.40;22.72;100014.55;105811;1260;65308;-63
2023/07/18 07:12:00;;;;;;;3.90;3.30;;;;;;;43.39;22.46;100013.91;104941;1259;60084;-63
2023/07/18 07:14:28;;;;;;;4.10;3.60;;;;;;;43.48;22.69;100012.09;105361;1256;62550;-63
2023/07/18 07:16:56;;;;;;;3.80;3.40;;;;;;;43.55;22.31;100013.09;105816;1256;59712;-66
2023/07/18 07:19:23;;;;;;;4.30;3.60;;;;;;;43.53;21.96;100014.92;105206;1256;59565;-65
2023/07/18 07:21:51;;;;;;;5.20;3.00;;;;;;;43.43;21.88;100008.77;107645;1256;63765;-65
2023/07/18 07:24:19;;;;;;;4.30;3.20;;;;;;;43.36;22.11;100002.52;106931;1260;59716;-64
2023/07/18 07:26:47;;;;;;;3.90;3.40;;;;;;;43.19;22.19;99999.12;105073;1256;62588;-65
2023/07/18 07:29:14;;;;;;;4.10;2.70;;;;;;;43.08;22.24;99998.41;105364;1260;59508;-67
2023/07/18 07:31:45;;;;;;;3.50;2.90;;;;;;;43.07;22.49;99994.34;105399;1256;59559;-65
2023/07/18 07:34:13;;;;;;;3.10;2.80;;;;;;;43.13;21.97;99994.13;105398;1255;64240;-65
2023/07/18 07:36:41;;;;;;;3.80;2.60;;;;;;;43.16;21.54;99986.71;105444;1259;59785;-64
2023/07/18 07:39:08;;;;;;;3.20;2.90;;;;;;;43.04;21.46;99983.08;105716;1256;63677;-65
2023/07/18 07:41:36;;;;;;;4.70;3.00;;;;;;;42.90;21.77;99982.85;105152;1256;59799;-64
2023/07/18 07:44:04;;;;;;;3.50;3.10;;;;;;;42.89;22.16;99986.15;105400;1260;59631;-64
2023/07/18 07:46:32;;;;;;;4.50;2.90;;;;;;;43.00;21.84;99982.58;105525;1256;64408;-64
2023/07/18 07:49:00;;;;;;;4.60;3.20;;;;;;;43.18;21.42;99984.41;105424;1256;59656;-66
2023/07/18 07:51:33;;;;;;;5.20;3.20;;;;;;;43.43;21.36;99979.52;105367;1256;64611;-64
2023/07/18 07:54:01;;;;;;;3.00;2.40;;;;;;;43.72;20.95;99976.45;105470;1256;59725;-64
2023/07/18 07:56:28;;;;;;;4.80;3.00;;;;;;;43.87;20.78;99974.80;105514;1260;59631;-64
2023/07/18 07:58:56;;;;;;;4.40;2.70;;;;;;;44.09;20.35;99971.85;105827;1256;64257;-66
2023/07/18 08:01:38;;;;;;;3.10;2.80;;;;;;;44.28;19.84;99970.06;105328;1258;59635;-64
2023/07/18 08:04:08;;;;;;;4.60;2.60;;;;;;;44.36;19.92;99965.92;105440;1260;72699;-64
2023/07/18 08:06:36;;;;;;;4.90;2.80;;;;;;;44.41;20.06;99965.53;105397;1261;59711;-64
2023/07/18 08:09:04;;;;;;;4.00;3.10;;;;;;;44.38;20.58;99965.73;105184;1256;59585;-66
2023/07/18 08:11:32;;;;;;;3.10;2.80;;;;;;;44.33;20.23;99965.75;105093;1262;64175;-65
2023/07/18 08:14:00;;;;;;;3.20;2.60;;;;;;;44.20;19.90;99963.91;105305;1261;59714;-64
2023/07/18 08:16:28;;;;;;;4.90;2.60;;;;;;;43.98;20.02;99963.12;105459;1261;64634;-67
2023/07/18 08:18:56;;;;;;;3.00;2.60;;;;;;;43.75;20.12;99963.07;105514;1260;59524;-67
2023/07/18 08:21:25;;;;;;;4.10;2.70;;;;;;;43.37;20.37;99967.23;105481;1256;59765;-65
2023/07/18 08:23:53;;;;;;;3.50;2.70;;;;;;;43.06;20.78;99967.92;105534;1256;62947;-64
2023/07/18 08:26:21;;;;;;;4.80;2.60;;;;;;;42.81;20.95;99965.56;105419;1260;59624;-65
2023/07/18 08:28:49;;;;;;;2.80;2.50;;;;;;;42.56;21.45;99968.81;105601;1260;63823;-67
2023/07/18 08:31:17;;;;;;;2.40;2.20;;;;;;;42.32;21.60;99971.38;105223;1256;59728;-65
2023/07/18 08:33:45;;;;;;;3.00;2.60;;;;;;;42.06;21.80;99969.41;105535;1256;59222;-65
2023/07/18 08:36:13;;;;;;;3.10;2.30;;;;;;;41.84;22.64;99965.67;106073;1256;64200;-65
2023/07/18 08:38:46;;;;;;;7.40;6.30;;;;;;;41.76;22.66;99963.43;105768;1260;59623;-67
2023/07/18 08:41:17;;;;;;;12.10;6.80;;;;;;;41.70;22.50;99958.08;105493;1256;63858;-63
2023/07/18 08:43:46;;;;;;;7.20;4.80;;;;;;;41.71;22.94;99955.17;105476;1261;59679;-64
2023/07/18 08:46:15;;;;;;;4.10;3.20;;;;;;;41.88;22.93;99956.95;105459;1260;59505;-63
2023/07/18 08:48:43;;;;;;;4.40;3.20;;;;;;;41.84;22.32;99955.02;105462;1256;64179;-65
2023/07/18 08:51:12;;;;;;;5.10;2.80;;;;;;;41.52;22.56;99947.56;105426;1261;59608;-65
2023/07/18 08:53:43;;;;;;;4.50;3.40;;;;;;;41.09;22.82;99945.35;105441;1256;62469;-63
2023/07/18 08:56:11;;;;;;;4.50;2.90;;;;;;;40.73;23.42;99940.09;105459;1261;59717;-67
2023/07/18 08:58:39;;;;;;;5.40;2.50;;;;;;;40.68;23.85;99937.06;105601;1259;59702;-66
2023/07/18 09:01:08;;;;;;;2.60;1.90;;;;;;;40.68;24.01;99938.46;105416;1257;63000;-64
2023/07/18 09:03:35;;;;;;;3.00;2.00;;;;;;;40.74;23.92;99936.49;105352;1256;59809;-64
2023/07/18 09:06:03;;;;;;;3.40;2.20;;;;;;;40.80;23.75;99931.40;105520;1256;63812;-68
2023/07/18 09:08:41;;;;;;;3.60;2.40;;;;;;;40.78;23.34;99926.96;105119;1262;59744;-67
2023/07/18 09:11:11;;;;;;;3.00;2.00;;;;;;;40.61;23.79;99924.29;105203;1256;59518;-64
2023/07/18 09:13:39;;;;;;;2.60;1.80;;;;;;;40.48;23.90;99922.48;105396;1256;62976;-64
2023/07/18 09:16:14;;;;;;;2.90;2.00;;;;;;;40.38;24.19;99925.48;105735;1256;59720;-65
2023/07/18 09:18:48;;;;;;;3.20;2.50;;;;;;;40.26;24.28;99919.89;105102;1256;64423;-64
2023/07/18 09:21:18;;;;;;;4.20;2.50;;;;;;;39.96;24.21;99922.86;105232;1261;60034;-65
2023/07/18 09:23:47;;;;;;;4.40;2.00;;;;;;;39.63;24.39;99922.35;105407;1259;59623;-66
2023/07/18 09:26:17;;;;;;;2.30;1.90;;;;;;;39.47;24.41;99916.10;104802;1261;62920;-67
2023/07/18 09:28:46;;;;;;;3.30;2.30;;;;;;;39.50;24.67;99908.15;105094;1254;59527;-64
2023/07/18 09:31:17;;;;;;;3.50;2.00;;;;;;;39.71;25.55;99901.95;105132;1254;63879;-64
2023/07/18 09:33:46;;;;;;;4.00;2.40;;;;;;;40.01;25.03;99896.56;105225;1259;59783;-68
2023/07/18 09:36:19;;;;;;;3.50;2.40;;;;;;;40.28;24.70;99895.23;104771;1256;59654;-66
2023/07/18 09:38:47;;;;;;;3.20;2.30;;;;;;;40.43;23.93;99895.50;104991;1259;64248;-64
2023/07/18 09:41:16;;;;;;;4.10;1.90;;;;;;;40.41;24.17;99892.70;104964;1256;59832;-64
2023/07/18 09:43:45;;;;;;;8.50;2.60;;;;;;;40.36;23.72;99891.86;105308;1256;63692;-67
2023/07/18 09:46:16;;;;;;;2.60;2.10;;;;;;;40.27;23.36;99891.10;105150;1261;59559;-65
2023/07/18 09:48:45;;;;;;;3.90;2.00;;;;;;;40.06;23.55;99893.06;105078;1256;59164;-63
2023/07/18 09:51:19;;;;;;;4.60;2.10;;;;;;;39.85;23.97;99891.73;104879;1256;62904;-62
2023/07/18 09:53:48;;;;;;;3.20;2.00;;;;;;;39.74;24.12;99887.85;105492;1259;59729;-66
2023/07/18 09:56:17;;;;;;;4.00;2.00;;;;;;;39.58;24.24;99881.59;104792;1261;64249;-63
2023/07/18 09:58:46;;;;;;;3.30;2.30;;;;;;;39.47;24.64;99880.80;105365;1258;59540;-63
2023/07/18 10:01:20;;;;;;;4.10;2.20;;;;;;;39.49;24.51;99879.63;105771;1255;59699;-63
2023/07/18 10:03:49;;;;;;;2.90;2.10;;;;;;;39.61;24.04;99878.31;105116;1259;64219;-65
2023/07/18 10:06:18;;;;;;;2.90;2.20;;;;;;;39.80;24.16;99874.74;105120;1260;59647;-66
2023/07/18 10:08:46;;;;;;;2.80;2.20;;;;;;;40.03;23.59;99868.42;105157;1256;63823;-64
2023/07/18 10:11:14;;;;;;;3.40;2.10;;;;;;;40.13;23.49;99867.79;105127;1259;59725;-64
2023/07/18 10:13:54;;;;;;;14.30;2.60;;;;;;;40.22;22.97;99866.14;105012;1261;59582;-65
2023/07/18 10:16:23;;;;;;;2.90;1.70;;;;;;;40.39;23.09;99863.05;105087;1259;64148;-64
2023/07/18 10:18:51;;;;;;;2.70;1.90;;;;;;;40.56;22.89;99857.92;104954;1254;59870;-64
2023/07/18 10:21:29;;;;;;;4.20;1.70;;;;;;;40.68;22.80;99854.63;105240;1259;62508;-66
2023/07/18 10:23:57;;;;;;;2.50;1.70;;;;;;;40.75;22.84;99857.23;105236;1259;59567;-66
2023/07/18 10:26:30;;;;;;;3.10;1.60;;;;;;;40.89;22.52;99857.25;105192;1254;60066;-64
2023/07/18 10:29:01;;;;;;;2.20;1.50;;;;;;;40.90;21.69;99857.09;105407;1258;64197;-67
2023/07/18 10:31:38;;;;;;;2.80;1.80;;;;;;;40.75;21.55;99848.73;105004;1259;59583;-64
2023/07/18 10:34:10;;;;;;;2.40;1.60;;;;;;;40.67;21.58;99845.65;104808;1260;62517;-63
2023/07/18 10:36:38;;;;;;;2.80;1.50;;;;;;;40.73;21.93;99842.65;105813;1256;59634;-63
2023/07/18 10:39:12;;;;;;;3.00;1.60;;;;;;;40.82;22.28;99841.28;105116;1256;59612;-64
2023/07/18 10:41:44;;;;;;;2.80;1.80;;;;;;;40.91;21.23;99838.73;105269;1256;62920;-67
2023/07/18 10:44:12;;;;;;;2.20;1.70;;;;;;;40.79;21.00;99830.91;105069;1260;69097;-64
2023/07/18 10:46:42;;;;;;;4.30;1.80;;;;;;;40.52;20.97;99832.34;105180;1256;63805;-66
2023/07/18 10:49:10;;;;;;;2.50;1.60;;;;;;;40.17;21.01;99829.23;105120;1257;60453;-62
2023/07/18 10:51:39;;;;;;;2.80;1.50;;;;;;;39.91;21.99;99833.81;105042;1261;60339;-63
2023/07/18 10:54:07;;;;;;;2.40;1.40;;;;;;;39.77;22.21;99836.79;104952;1261;65057;-63
2023/07/18 10:56:35;;;;;;;2.60;1.60;;;;;;;39.64;22.34;99834.11;105009;1260;59227;-62
2023/07/18 10:59:02;;;;;;;3.10;1.80;;;;;;;39.55;22.48;99837.15;104965;1261;64475;-63
2023/07/18 11:01:31;;;;;;;2.90;1.60;;;;;;;39.44;22.07;99832.09;105214;1262;60439;-63
2023/07/18 11:04:04;;;;;;;2.90;1.70;;;;;;;39.43;22.60;99828.42;109021;1254;58694;-63
2023/07/18 11:06:34;;;;;;;2.10;1.50;;;;;;;39.53;22.64;99822.04;109004;1254;63696;-65
2023/07/18 11:09:04;;;;;;;4.40;2.70;;;;;;;39.62;22.58;99817.21;109039;1254;60555;-63
2023/07/18 11:11:31;;;;;;;4.60;2.80;;;;;;;39.68;22.81;99819.86;108895;1256;63126;-64
2023/07/18 11:13:59;;;;;;;3.40;2.10;;;;;;;39.63;22.80;99818.52;108913;1255;58171;-64
2023/07/18 11:16:27;;;;;;;2.70;2.20;;;;;;;39.46;22.85;99823.05;109045;1254;58121;-66
2023/07/18 11:18:55;;;;;;;4.60;2.00;;;;;;;39.07;22.88;99821.89;108877;1255;65582;-63
2023/07/18 11:21:22;;;;;;;2.30;2.00;;;;;;;38.78;23.29;99820.02;108973;1256;58566;-65
2023/07/18 11:23:51;;;;;;;2.90;1.80;;;;;;;38.68;23.32;99815.30;109040;1254;75126;-63
2023/07/18 11:26:18;;;;;;;8.40;1.90;;;;;;;38.72;23.87;99809.31;109023;1254;58731;-67
2023/07/18 11:28:50;;;;;;;3.60;1.80;;;;;;;38.76;23.77;99811.19;108988;1256;58606;-63
2023/07/18 11:31:28;;;;;;;4.80;1.40;;;;;;;38.65;23.54;99810.85;109056;1254;65034;-67
2023/07/18 11:34:08;;;;;;;3.00;1.60;;;;;;;38.41;23.32;99811.68;109009;1260;58578;-65
2023/07/18 11:36:37;;;;;;;2.60;1.50;;;;;;;38.29;23.68;99810.21;109029;1254;62612;-64
2023/07/18 11:39:21;;;;;;;2.50;1.70;;;;;;;38.18;23.33;99802.76;109026;1254;58179;-67
2023/07/18 11:41:51;;;;;;;3.00;2.00;;;;;;;38.02;24.04;99800.64;108975;1254;58234;-64
2023/07/18 11:44:24;;;;;;;2.90;1.90;;;;;;;37.90;23.93;99802.50;109010;1259;63732;-64
2023/07/18 11:46:52;;;;;;;3.20;2.10;;;;;;;37.71;23.81;99807.55;108931;1255;67414;-63